sensor_id;sensor_type;location;lat;lon;timestamp;pressure;altitude;pressure_sealevel;temperature;humidity
42847;BME280;28495;49.916;14.536;2022-12-24T00:04:33;95791.41;;;7.90;83.11
42847;BME280;28495;49.916;14.536;2022-12-24T00:09:54;95798.38;;;7.90;82.91
42847;BME280;28495;49.916;14.536;2022-12-24T00:15:15;95801.78;;;7.90;82.98
42847;BME280;28495;49.916;14.536;2022-12-24T00:20:35;95811.88;;;7.93;82.76
42847;BME280;28495;49.916;14.536;2022-12-24T00:25:56;95798.59;;;7.97;83.11
42847;BME280;28495;49.916;14.536;2022-12-24T00:31:17;95807.06;;;7.99;82.79
42847;BME280;28495;49.916;14.536;2022-12-24T00:36:38;95808.56;;;8.01;82.84
42847;BME280;28495;49.916;14.536;2022-12-24T00:41:59;95824.50;;;8.06;82.95
42847;BME280;28495;49.916;14.536;2022-12-24T00:47:19;95826.97;;;8.08;82.93
42847;BME280;28495;49.916;14.536;2022-12-24T00:52:40;95835.09;;;8.13;82.96
42847;BME280;28495;49.916;14.536;2022-12-24T00:58:01;95837.69;;;8.13;82.96
42847;BME280;28495;49.916;14.536;2022-12-24T01:03:22;95844.69;;;8.13;82.69
42847;BME280;28495;49.916;14.536;2022-12-24T01:08:43;95856.63;;;8.05;82.37
42847;BME280;28495;49.916;14.536;2022-12-24T01:14:04;95868.63;;;8.06;82.80
42847;BME280;28495;49.916;14.536;2022-12-24T01:19:25;95883.13;;;8.09;82.57
42847;BME280;28495;49.916;14.536;2022-12-24T01:24:45;95905.28;;;8.03;82.64
42847;BME280;28495;49.916;14.536;2022-12-24T01:30:07;95907.22;;;8.01;82.79
42847;BME280;28495;49.916;14.536;2022-12-24T01:35:28;95919.38;;;8.01;82.59
42847;BME280;28495;49.916;14.536;2022-12-24T01:40:49;95913.22;;;8.02;82.79
42847;BME280;28495;49.916;14.536;2022-12-24T01:46:30;95915.28;;;7.98;82.57
42847;BME280;28495;49.916;14.536;2022-12-24T01:51:55;95923.22;;;7.97;82.35
42847;BME280;28495;49.916;14.536;2022-12-24T01:57:29;95935.50;;;7.94;82.30
42847;BME280;28495;49.916;14.536;2022-12-24T02:02:52;95929.38;;;7.96;82.32
42847;BME280;28495;49.916;14.536;2022-12-24T02:08:15;95944.94;;;7.96;82.27
42847;BME280;28495;49.916;14.536;2022-12-24T02:13:36;95947.69;;;7.94;82.31
42847;BME280;28495;49.916;14.536;2022-12-24T02:19:23;95955.47;;;7.94;82.07
42847;BME280;28495;49.916;14.536;2022-12-24T02:31:13;95988.84;;;7.89;82.03
42847;BME280;28495;49.916;14.536;2022-12-24T02:37:05;95979.28;;;7.89;82.03
42847;BME280;28495;49.916;14.536;2022-12-24T02:42:30;95975.19;;;7.87;81.76
42847;BME280;28495;49.916;14.536;2022-12-24T02:47:53;95982.31;;;7.85;82.11
42847;BME280;28495;49.916;14.536;2022-12-24T02:53:15;95990.81;;;7.77;81.80
42847;BME280;28495;49.916;14.536;2022-12-24T03:15:28;96010.91;;;7.75;82.07
42847;BME280;28495;49.916;14.536;2022-12-24T03:21:08;96019.63;;;7.74;81.87
42847;BME280;28495;49.916;14.536;2022-12-24T03:26:31;96032.72;;;7.72;82.04
42847;BME280;28495;49.916;14.536;2022-12-24T03:31:59;96037.81;;;7.74;81.87
42847;BME280;28495;49.916;14.536;2022-12-24T03:37:20;96034.81;;;7.69;81.78
42847;BME280;28495;49.916;14.536;2022-12-24T03:42:42;96036.44;;;7.70;81.84
42847;BME280;28495;49.916;14.536;2022-12-24T03:48:03;96031.13;;;7.71;81.53
42847;BME280;28495;49.916;14.536;2022-12-24T03:53:24;96028.38;;;7.73;81.61
42847;BME280;28495;49.916;14.536;2022-12-24T03:58:45;96038.59;;;7.74;81.52
42847;BME280;28495;49.916;14.536;2022-12-24T04:04:07;96042.16;;;7.73;81.28
42847;BME280;28495;49.916;14.536;2022-12-24T04:09:28;96051.06;;;7.71;81.19
42847;BME280;28495;49.916;14.536;2022-12-24T04:14:49;96064.19;;;7.69;81.20
42847;BME280;28495;49.916;14.536;2022-12-24T04:20:11;96073.03;;;7.67;81.02
42847;BME280;28495;49.916;14.536;2022-12-24T04:25:31;96080.97;;;7.65;81.14
42847;BME280;28495;49.916;14.536;2022-12-24T04:30:57;96087.94;;;7.65;81.10
42847;BME280;28495;49.916;14.536;2022-12-24T04:36:19;96082.47;;;7.58;80.90
42847;BME280;28495;49.916;14.536;2022-12-24T04:41:40;96103.53;;;7.55;80.84
42847;BME280;28495;49.916;14.536;2022-12-24T04:47:01;96100.25;;;7.53;80.68
42847;BME280;28495;49.916;14.536;2022-12-24T04:52:21;96111.84;;;7.48;80.80
42847;BME280;28495;49.916;14.536;2022-12-24T04:57:42;96111.16;;;7.46;80.59
42847;BME280;28495;49.916;14.536;2022-12-24T05:03:10;96112.81;;;7.47;80.73
42847;BME280;28495;49.916;14.536;2022-12-24T05:08:31;96121.56;;;7.46;80.79
42847;BME280;28495;49.916;14.536;2022-12-24T05:13:52;96125.09;;;7.45;80.39
42847;BME280;28495;49.916;14.536;2022-12-24T05:19:13;96138.06;;;7.45;79.93
42847;BME280;28495;49.916;14.536;2022-12-24T05:24:33;96148.34;;;7.47;80.14
42847;BME280;28495;49.916;14.536;2022-12-24T05:30:13;96155.69;;;7.52;79.95
42847;BME280;28495;49.916;14.536;2022-12-24T05:35:33;96151.59;;;7.49;79.58
42847;BME280;28495;49.916;14.536;2022-12-24T05:40:54;96159.25;;;7.51;79.52
42847;BME280;28495;49.916;14.536;2022-12-24T05:46:17;96160.19;;;7.50;79.38
42847;BME280;28495;49.916;14.536;2022-12-24T05:51:38;96160.19;;;7.50;79.37
42847;BME280;28495;49.916;14.536;2022-12-24T05:57:02;96158.56;;;7.48;79.33
42847;BME280;28495;49.916;14.536;2022-12-24T06:02:23;96179.72;;;7.44;79.31
42847;BME280;28495;49.916;14.536;2022-12-24T06:07:43;96173.84;;;7.42;78.97
42847;BME280;28495;49.916;14.536;2022-12-24T06:13:04;96187.50;;;7.34;78.99
42847;BME280;28495;49.916;14.536;2022-12-24T06:18:25;96198.81;;;7.33;79.08
42847;BME280;28495;49.916;14.536;2022-12-24T06:23:46;96205.91;;;7.31;78.90
42847;BME280;28495;49.916;14.536;2022-12-24T06:29:07;96220.25;;;7.25;79.02
42847;BME280;28495;49.916;14.536;2022-12-24T06:34:28;96222.13;;;7.23;78.92
42847;BME280;28495;49.916;14.536;2022-12-24T06:39:48;96237.69;;;7.23;79.25
42847;BME280;28495;49.916;14.536;2022-12-24T06:45:09;96240.28;;;7.23;79.23
42847;BME280;28495;49.916;14.536;2022-12-24T06:50:32;96270.03;;;7.19;78.96
42847;BME280;28495;49.916;14.536;2022-12-24T06:56:00;96283.00;;;7.19;79.38
42847;BME280;28495;49.916;14.536;2022-12-24T07:01:21;96290.53;;;7.22;78.94
42847;BME280;28495;49.916;14.536;2022-12-24T07:06:43;96296.94;;;7.18;78.93
42847;BME280;28495;49.916;14.536;2022-12-24T07:12:04;96308.63;;;7.12;78.50
42847;BME280;28495;49.916;14.536;2022-12-24T07:17:25;96326.38;;;7.07;78.80
42847;BME280;28495;49.916;14.536;2022-12-24T07:22:46;96330.16;;;7.03;78.79
42847;BME280;28495;49.916;14.536;2022-12-24T07:28:07;96338.06;;;7.01;78.92
42847;BME280;28495;49.916;14.536;2022-12-24T07:33:28;96341.72;;;6.99;78.90
42847;BME280;28495;49.916;14.536;2022-12-24T07:38:49;96352.09;;;6.99;79.14
42847;BME280;28495;49.916;14.536;2022-12-24T07:44:14;96352.41;;;7.06;79.09
42847;BME280;28495;49.916;14.536;2022-12-24T07:49:35;96345.06;;;7.11;79.05
42847;BME280;28495;49.916;14.536;2022-12-24T07:54:56;96367.91;;;7.17;79.08
42847;BME280;28495;49.916;14.536;2022-12-24T08:00:17;96360.53;;;7.22;78.88
42847;BME280;28495;49.916;14.536;2022-12-24T08:05:38;96373.81;;;7.29;78.80
42847;BME280;28495;49.916;14.536;2022-12-24T08:11:03;96380.94;;;7.37;78.89
42847;BME280;28495;49.916;14.536;2022-12-24T08:16:26;96389.47;;;7.48;78.76
42847;BME280;28495;49.916;14.536;2022-12-24T08:21:46;96386.53;;;7.63;78.80
42847;BME280;28495;49.916;14.536;2022-12-24T08:27:07;96385.63;;;7.74;78.69
42847;BME280;28495;49.916;14.536;2022-12-24T08:32:28;96395.19;;;7.83;78.98
42847;BME280;28495;49.916;14.536;2022-12-24T08:37:48;96402.56;;;7.88;78.77
42847;BME280;28495;49.916;14.536;2022-12-24T08:43:09;96402.47;;;7.89;78.59
42847;BME280;28495;49.916;14.536;2022-12-24T08:48:31;96404.09;;;7.90;78.41
42847;BME280;28495;49.916;14.536;2022-12-24T08:53:52;96421.03;;;7.94;78.57
42847;BME280;28495;49.916;14.536;2022-12-24T08:59:13;96419.97;;;7.97;78.73
42847;BME280;28495;49.916;14.536;2022-12-24T09:04:37;96429.28;;;8.00;78.57
42847;BME280;28495;49.916;14.536;2022-12-24T09:09:59;96446.78;;;8.07;78.55
42847;BME280;28495;49.916;14.536;2022-12-24T09:15:20;96449.66;;;8.04;78.28
42847;BME280;28495;49.916;14.536;2022-12-24T09:20:41;96462.34;;;7.98;78.34
42847;BME280;28495;49.916;14.536;2022-12-24T09:26:22;96454.94;;;7.93;78.11
42847;BME280;28495;49.916;14.536;2022-12-24T09:31:43;96465.03;;;7.86;78.25
42847;BME280;28495;49.916;14.536;2022-12-24T09:37:04;96459.44;;;7.91;78.47
42847;BME280;28495;49.916;14.536;2022-12-24T09:42:52;96472.31;;;8.02;78.37
42847;BME280;28495;49.916;14.536;2022-12-24T09:48:16;96481.13;;;8.21;78.46
42847;BME280;28495;49.916;14.536;2022-12-24T09:59:19;96495.22;;;8.59;78.08
42847;BME280;28495;49.916;14.536;2022-12-24T10:04:43;96505.63;;;8.69;78.23
42847;BME280;28495;49.916;14.536;2022-12-24T10:15:38;96521.88;;;8.71;77.77
42847;BME280;28495;49.916;14.536;2022-12-24T10:21:20;96536.16;;;8.96;78.33
42847;BME280;28495;49.916;14.536;2022-12-24T10:26:51;96541.22;;;8.88;77.17
42847;BME280;28495;49.916;14.536;2022-12-24T10:32:21;96546.16;;;8.91;77.55
42847;BME280;28495;49.916;14.536;2022-12-24T10:37:45;96543.00;;;8.88;77.27
42847;BME280;28495;49.916;14.536;2022-12-24T10:43:22;96564.75;;;8.87;77.22
42847;BME280;28495;49.916;14.536;2022-12-24T10:49:04;96572.56;;;8.77;76.85
42847;BME280;28495;49.916;14.536;2022-12-24T10:54:27;96574.84;;;8.70;77.11
42847;BME280;28495;49.916;14.536;2022-12-24T10:59:51;96578.59;;;8.87;77.37
42847;BME280;28495;49.916;14.536;2022-12-24T11:10:57;96573.75;;;8.63;77.33
42847;BME280;28495;49.916;14.536;2022-12-24T11:16:34;96583.75;;;8.67;76.89
42847;BME280;28495;49.916;14.536;2022-12-24T11:22:15;96594.25;;;8.56;76.73
42847;BME280;28495;49.916;14.536;2022-12-24T11:27:41;96605.91;;;8.41;76.67
42847;BME280;28495;49.916;14.536;2022-12-24T11:38:26;96606.41;;;8.56;77.92
42847;BME280;28495;49.916;14.536;2022-12-24T11:43:49;96606.41;;;8.56;77.64
42847;BME280;28495;49.916;14.536;2022-12-24T11:54:37;96597.28;;;8.40;77.72
42847;BME280;28495;49.916;14.536;2022-12-24T12:00:00;96593.75;;;8.41;77.93
42847;BME280;28495;49.916;14.536;2022-12-24T12:05:24;96596.09;;;8.44;78.18
42847;BME280;28495;49.916;14.536;2022-12-24T12:10:48;96593.81;;;8.51;78.45
42847;BME280;28495;49.916;14.536;2022-12-24T12:16:57;96604.81;;;8.74;78.44
42847;BME280;28495;49.916;14.536;2022-12-24T12:23:15;96616.97;;;8.64;78.09
42847;BME280;28495;49.916;14.536;2022-12-24T12:28:57;96623.28;;;8.61;78.61
42847;BME280;28495;49.916;14.536;2022-12-24T12:34:43;96633.88;;;8.48;78.14
42847;BME280;28495;49.916;14.536;2022-12-24T12:40:02;96637.25;;;8.39;78.33
42847;BME280;28495;49.916;14.536;2022-12-24T12:45:39;96621.97;;;8.24;78.40
42847;BME280;28495;49.916;14.536;2022-12-24T12:56:33;96630.88;;;8.01;78.21
42847;BME280;28495;49.916;14.536;2022-12-24T13:13:34;96646.72;;;8.81;80.18
42847;BME280;28495;49.916;14.536;2022-12-24T13:24:54;96645.41;;;8.34;78.43
42847;BME280;28495;49.916;14.536;2022-12-24T13:30:38;96662.47;;;8.27;78.35
42847;BME280;28495;49.916;14.536;2022-12-24T13:36:13;96673.50;;;8.19;78.58
42847;BME280;28495;49.916;14.536;2022-12-24T13:41:37;96662.91;;;8.11;78.43
42847;BME280;28495;49.916;14.536;2022-12-24T13:47:18;96678.38;;;8.13;78.78
42847;BME280;28495;49.916;14.536;2022-12-24T13:52:52;96678.50;;;8.11;78.73
42847;BME280;28495;49.916;14.536;2022-12-24T13:58:15;96689.84;;;8.10;78.58
42847;BME280;28495;49.916;14.536;2022-12-24T14:03:42;96679.91;;;8.15;78.94
42847;BME280;28495;49.916;14.536;2022-12-24T14:09:14;96686.25;;;8.22;79.09
42847;BME280;28495;49.916;14.536;2022-12-24T14:14:39;96692.25;;;8.23;79.34
42847;BME280;28495;49.916;14.536;2022-12-24T14:20:01;96694.84;;;8.44;79.62
42847;BME280;28495;49.916;14.536;2022-12-24T14:25:28;96704.13;;;8.58;79.52
42847;BME280;28495;49.916;14.536;2022-12-24T14:30:59;96713.56;;;8.59;79.19
42847;BME280;28495;49.916;14.536;2022-12-24T14:36:22;96724.25;;;8.45;79.06
42847;BME280;28495;49.916;14.536;2022-12-24T14:59:22;96748.16;;;8.38;78.88
42847;BME280;28495;49.916;14.536;2022-12-24T15:04:42;96745.38;;;8.30;78.68
42847;BME280;28495;49.916;14.536;2022-12-24T15:10:04;96750.44;;;8.32;78.81
42847;BME280;28495;49.916;14.536;2022-12-24T15:15:27;96750.28;;;8.33;78.82
42847;BME280;28495;49.916;14.536;2022-12-24T15:20:51;96764.38;;;8.31;78.81
42847;BME280;28495;49.916;14.536;2022-12-24T15:26:27;96777.22;;;8.32;78.48
42847;BME280;28495;49.916;14.536;2022-12-24T15:31:59;96779.97;;;8.31;78.48
42847;BME280;28495;49.916;14.536;2022-12-24T15:37:26;96795.38;;;8.22;78.43
42847;BME280;28495;49.916;14.536;2022-12-24T15:42:48;96811.19;;;8.19;78.53
42847;BME280;28495;49.916;14.536;2022-12-24T15:48:11;96808.03;;;8.16;78.50
42847;BME280;28495;49.916;14.536;2022-12-24T15:53:37;96810.09;;;8.22;78.72
42847;BME280;28495;49.916;14.536;2022-12-24T16:04:43;96822.78;;;8.15;78.39
42847;BME280;28495;49.916;14.536;2022-12-24T16:10:22;96820.69;;;8.09;78.26
42847;BME280;28495;49.916;14.536;2022-12-24T16:21:18;96824.84;;;8.00;78.42
42847;BME280;28495;49.916;14.536;2022-12-24T16:26:39;96825.06;;;7.97;78.51
42847;BME280;28495;49.916;14.536;2022-12-24T16:32:00;96829.94;;;7.90;78.31
42847;BME280;28495;49.916;14.536;2022-12-24T16:37:21;96826.06;;;7.85;78.22
42847;BME280;28495;49.916;14.536;2022-12-24T16:42:42;96834.53;;;7.87;78.47
42847;BME280;28495;49.916;14.536;2022-12-24T16:48:23;96844.56;;;7.91;78.34
42847;BME280;28495;49.916;14.536;2022-12-24T16:53:46;96850.09;;;7.87;78.22
42847;BME280;28495;49.916;14.536;2022-12-24T16:59:19;96854.84;;;7.82;77.86
42847;BME280;28495;49.916;14.536;2022-12-24T17:04:41;96871.63;;;7.77;78.02
42847;BME280;28495;49.916;14.536;2022-12-24T17:10:03;96871.41;;;7.69;77.76
42847;BME280;28495;49.916;14.536;2022-12-24T17:15:24;96875.97;;;7.66;77.96
42847;BME280;28495;49.916;14.536;2022-12-24T17:20:56;96885.31;;;7.68;78.19
42847;BME280;28495;49.916;14.536;2022-12-24T17:26:17;96887.56;;;7.73;78.32
42847;BME280;28495;49.916;14.536;2022-12-24T17:31:38;96901.34;;;7.73;78.00
42847;BME280;28495;49.916;14.536;2022-12-24T17:37:00;96906.66;;;7.72;78.27
42847;BME280;28495;49.916;14.536;2022-12-24T17:42:21;96908.31;;;7.73;78.02
42847;BME280;28495;49.916;14.536;2022-12-24T17:47:42;96913.03;;;7.68;78.09
42847;BME280;28495;49.916;14.536;2022-12-24T17:53:03;96906.91;;;7.57;77.59
42847;BME280;28495;49.916;14.536;2022-12-24T17:58:23;96907.38;;;7.51;77.62
42847;BME280;28495;49.916;14.536;2022-12-24T18:03:45;96903.25;;;7.48;78.38
42847;BME280;28495;49.916;14.536;2022-12-24T18:09:06;96901.47;;;7.49;78.43
42847;BME280;28495;49.916;14.536;2022-12-24T18:14:27;96907.63;;;7.48;78.80
42847;BME280;28495;49.916;14.536;2022-12-24T18:19:48;96914.78;;;8.57;80.73
42847;BME280;28495;49.916;14.536;2022-12-24T18:25:09;96922.44;;;8.14;77.62
42847;BME280;28495;49.916;14.536;2022-12-24T18:30:30;96934.84;;;7.88;77.73
42847;BME280;28495;49.916;14.536;2022-12-24T18:35:51;96941.22;;;7.72;77.62
42847;BME280;28495;49.916;14.536;2022-12-24T18:41:14;96949.50;;;7.66;78.05
42847;BME280;28495;49.916;14.536;2022-12-24T18:46:35;96956.22;;;7.57;77.65
42847;BME280;28495;49.916;14.536;2022-12-24T18:51:56;96952.31;;;7.52;78.31
42847;BME280;28495;49.916;14.536;2022-12-24T18:57:17;96956.44;;;7.54;78.13
42847;BME280;28495;49.916;14.536;2022-12-24T19:02:37;96956.09;;;7.47;78.15
42847;BME280;28495;49.916;14.536;2022-12-24T19:07:58;96951.47;;;7.40;77.88
42847;BME280;28495;49.916;14.536;2022-12-24T19:13:30;96946.06;;;7.31;78.18
42847;BME280;28495;49.916;14.536;2022-12-24T19:18:52;96954.41;;;7.24;78.03
42847;BME280;28495;49.916;14.536;2022-12-24T19:24:12;96955.78;;;7.16;77.87
42847;BME280;28495;49.916;14.536;2022-12-24T19:29:34;96962.28;;;7.11;78.14
42847;BME280;28495;49.916;14.536;2022-12-24T19:34:55;96961.31;;;7.00;78.08
42847;BME280;28495;49.916;14.536;2022-12-24T19:40:16;96970.13;;;6.98;78.17
42847;BME280;28495;49.916;14.536;2022-12-24T19:45:37;96975.28;;;6.98;77.99
42847;BME280;28495;49.916;14.536;2022-12-24T19:51:02;96974.63;;;7.07;78.23
42847;BME280;28495;49.916;14.536;2022-12-24T19:56:26;96980.75;;;7.06;78.12
42847;BME280;28495;49.916;14.536;2022-12-24T20:01:48;96989.72;;;7.13;78.01
42847;BME280;28495;49.916;14.536;2022-12-24T20:07:09;96997.97;;;7.07;78.29
42847;BME280;28495;49.916;14.536;2022-12-24T20:12:31;96996.41;;;7.05;78.19
42847;BME280;28495;49.916;14.536;2022-12-24T20:17:53;97004.19;;;7.05;78.11
42847;BME280;28495;49.916;14.536;2022-12-24T20:23:14;97009.06;;;7.09;78.55
42847;BME280;28495;49.916;14.536;2022-12-24T20:28:37;97010.81;;;7.09;78.21
42847;BME280;28495;49.916;14.536;2022-12-24T20:33:59;97008.72;;;7.14;78.50
42847;BME280;28495;49.916;14.536;2022-12-24T20:39:20;96997.63;;;7.12;78.38
42847;BME280;28495;49.916;14.536;2022-12-24T20:44:41;97016.50;;;7.14;78.12
42847;BME280;28495;49.916;14.536;2022-12-24T20:50:02;97026.88;;;7.14;78.21
42847;BME280;28495;49.916;14.536;2022-12-24T20:55:23;97032.28;;;7.11;78.33
42847;BME280;28495;49.916;14.536;2022-12-24T21:00:45;97035.47;;;7.14;78.15
42847;BME280;28495;49.916;14.536;2022-12-24T21:06:06;97031.47;;;7.10;78.09
42847;BME280;28495;49.916;14.536;2022-12-24T21:11:28;97029.13;;;7.19;78.54
42847;BME280;28495;49.916;14.536;2022-12-24T21:17:07;97039.16;;;7.23;78.46
42847;BME280;28495;49.916;14.536;2022-12-24T21:22:35;97045.31;;;7.33;78.60
42847;BME280;28495;49.916;14.536;2022-12-24T21:27:55;97050.56;;;7.45;78.74
42847;BME280;28495;49.916;14.536;2022-12-24T21:33:16;97065.00;;;7.60;78.82
42847;BME280;28495;49.916;14.536;2022-12-24T21:38:37;97053.44;;;7.65;78.41
42847;BME280;28495;49.916;14.536;2022-12-24T21:44:00;97058.69;;;7.87;79.07
42847;BME280;28495;49.916;14.536;2022-12-24T21:49:21;97059.50;;;7.88;78.65
42847;BME280;28495;49.916;14.536;2022-12-24T21:55:00;97060.56;;;9.09;84.35
42847;BME280;28495;49.916;14.536;2022-12-24T22:00:22;97051.19;;;9.29;79.62
42847;BME280;28495;49.916;14.536;2022-12-24T22:05:43;97052.28;;;8.82;77.99
42847;BME280;28495;49.916;14.536;2022-12-24T22:11:11;97047.72;;;8.41;77.27
42847;BME280;28495;49.916;14.536;2022-12-24T22:16:50;97046.66;;;8.09;77.49
42847;BME280;28495;49.916;14.536;2022-12-24T22:22:12;97067.63;;;7.83;77.65
42847;BME280;28495;49.916;14.536;2022-12-24T22:27:35;97089.19;;;7.61;77.45
42847;BME280;28495;49.916;14.536;2022-12-24T22:32:57;97070.53;;;7.56;77.99
42847;BME280;28495;49.916;14.536;2022-12-24T22:38:17;97060.00;;;7.46;77.98
42847;BME280;28495;49.916;14.536;2022-12-24T22:43:38;97060.22;;;7.43;78.16
42847;BME280;28495;49.916;14.536;2022-12-24T22:48:59;97075.09;;;7.41;78.18
42847;BME280;28495;49.916;14.536;2022-12-24T22:54:20;97071.69;;;7.40;78.07
42847;BME280;28495;49.916;14.536;2022-12-24T22:59:41;97067.22;;;7.54;78.66
42847;BME280;28495;49.916;14.536;2022-12-24T23:05:02;97074.19;;;7.65;78.63
42847;BME280;28495;49.916;14.536;2022-12-24T23:10:22;97080.44;;;7.62;78.38
42847;BME280;28495;49.916;14.536;2022-12-24T23:15:43;97096.59;;;7.54;78.22
42847;BME280;28495;49.916;14.536;2022-12-24T23:21:05;97091.75;;;7.50;78.11
42847;BME280;28495;49.916;14.536;2022-12-24T23:26:27;97103.75;;;7.39;77.79
42847;BME280;28495;49.916;14.536;2022-12-24T23:31:48;97101.75;;;7.43;78.24
42847;BME280;28495;49.916;14.536;2022-12-24T23:37:09;97099.53;;;7.50;78.29
42847;BME280;28495;49.916;14.536;2022-12-24T23:42:29;97104.84;;;7.48;78.12
42847;BME280;28495;49.916;14.536;2022-12-24T23:47:50;97104.34;;;7.43;78.08
42847;BME280;28495;49.916;14.536;2022-12-24T23:53:11;97103.94;;;7.25;77.84
42847;BME280;28495;49.916;14.536;2022-12-24T23:58:33;97102.56;;;7.19;77.80
